KDSM/DSM METAR and TAF weather

Enter ICAO airport designator
Station Type Date Time Source
KDSM METAR 2019/09/20 19:54 UTC NOAA

KDSM 201954Z 18014G26KT 10SM FEW050 SCT250 32/18 A2996 RMK AO2 PK WND 19026/1949 SLP137 T03170178


Station Type Date Time Source
KDSM Decoded METAR 2019/09/20 19:54 UTC NOAA

DES MOINES INTERNATIONAL, IA, United States (KDSM) 41-32N 93-40W 295M
Sep 20, 2019 - 03:54 PM EDT / 2019.09.20 1954 UTC
Wind: from the S (180 degrees) at 16 MPH (14 KT) gusting to 30 MPH (26 KT):0
Visibility: 10 mile(s):0
Sky conditions: partly cloudy
Temperature: 89.1 F (31.7 C)
Dew Point: 64.0 F (17.8 C)
Relative Humidity: 43%
Pressure (altimeter): 29.96 in. Hg (1014 hPa)
ob: KDSM 201954Z 18014G26KT 10SM FEW050 SCT250 32/18 A2996 RMK AO2 PK WND 19026/1949 SLP137 T03170178
cycle: 20

Station Type Date Time Source
KDSM TAF 2019/09/20 20:54 UTC NOAA

TAF
AMD KDSM 201951Z 2020/2118 16013G22KT P6SM SCT050
FM210100 16008KT P6SM FEW250
FM210700 17009KT P6SM VCSH SCT011 BKN030
FM211100 18012G18KT P6SM VCSH SCT008 OVC011

Example: see airport list